sensor_id;sensor_type;location;lat;lon;timestamp;pressure;altitude;pressure_sealevel;temperature;humidity
71917;BME280;59793;46.506;6.674;2023-04-27T00:00:18;97150.31;;;12.79;61.32
71917;BME280;59793;46.506;6.674;2023-04-27T00:02:44;97128.44;;;12.36;61.18
71917;BME280;59793;46.506;6.674;2023-04-27T00:05:10;97129.19;;;12.36;61.33
71917;BME280;59793;46.506;6.674;2023-04-27T00:07:36;97153.53;;;12.46;61.21
71917;BME280;59793;46.506;6.674;2023-04-27T00:10:01;97141.44;;;12.44;60.98
71917;BME280;59793;46.506;6.674;2023-04-27T00:12:26;97151.00;;;12.53;59.57
71917;BME280;59793;46.506;6.674;2023-04-27T00:14:52;97154.47;;;12.57;59.70
71917;BME280;59793;46.506;6.674;2023-04-27T00:17:17;97156.69;;;12.74;59.21
71917;BME280;59793;46.506;6.674;2023-04-27T00:19:42;97140.34;;;12.68;58.69
71917;BME280;59793;46.506;6.674;2023-04-27T00:22:08;97127.38;;;12.83;57.45
71917;BME280;59793;46.506;6.674;2023-04-27T00:24:33;97149.22;;;13.03;57.82
71917;BME280;59793;46.506;6.674;2023-04-27T00:26:59;97157.56;;;13.05;58.06
71917;BME280;59793;46.506;6.674;2023-04-27T00:29:24;97148.94;;;13.08;58.51
71917;BME280;59793;46.506;6.674;2023-04-27T00:31:50;97158.56;;;13.20;58.62
71917;BME280;59793;46.506;6.674;2023-04-27T00:34:15;97158.13;;;13.18;58.60
71917;BME280;59793;46.506;6.674;2023-04-27T00:36:40;97158.50;;;13.16;58.68
71917;BME280;59793;46.506;6.674;2023-04-27T00:39:06;97166.06;;;13.18;58.67
71917;BME280;59793;46.506;6.674;2023-04-27T00:41:31;97163.47;;;13.21;59.30
71917;BME280;59793;46.506;6.674;2023-04-27T00:43:57;97156.66;;;13.20;59.37
71917;BME280;59793;46.506;6.674;2023-04-27T00:46:23;97172.03;;;13.11;59.99
71917;BME280;59793;46.506;6.674;2023-04-27T00:48:49;97145.06;;;13.02;59.94
71917;BME280;59793;46.506;6.674;2023-04-27T00:51:14;97152.56;;;13.00;59.93
71917;BME280;59793;46.506;6.674;2023-04-27T00:53:40;97162.03;;;13.01;60.60
71917;BME280;59793;46.506;6.674;2023-04-27T00:56:06;97162.84;;;13.05;59.73
71917;BME280;59793;46.506;6.674;2023-04-27T00:58:31;97134.56;;;12.86;58.85
71917;BME280;59793;46.506;6.674;2023-04-27T01:00:58;97151.94;;;12.83;59.14
71917;BME280;59793;46.506;6.674;2023-04-27T01:03:24;97161.34;;;12.61;60.10
71917;BME280;59793;46.506;6.674;2023-04-27T01:05:50;97146.84;;;12.52;59.71
71917;BME280;59793;46.506;6.674;2023-04-27T01:08:15;97169.78;;;12.67;59.11
71917;BME280;59793;46.506;6.674;2023-04-27T01:10:41;97171.59;;;12.63;59.03
71917;BME280;59793;46.506;6.674;2023-04-27T01:13:06;97168.25;;;12.66;58.94
71917;BME280;59793;46.506;6.674;2023-04-27T01:15:31;97162.25;;;12.69;59.02
71917;BME280;59793;46.506;6.674;2023-04-27T01:17:58;97164.91;;;12.69;58.98
71917;BME280;59793;46.506;6.674;2023-04-27T01:20:23;97141.75;;;12.62;58.64
71917;BME280;59793;46.506;6.674;2023-04-27T01:22:49;97166.06;;;12.72;58.71
71917;BME280;59793;46.506;6.674;2023-04-27T01:25:14;97169.56;;;12.56;60.20
71917;BME280;59793;46.506;6.674;2023-04-27T01:27:39;97173.09;;;12.64;61.15
71917;BME280;59793;46.506;6.674;2023-04-27T01:30:05;97172.00;;;12.65;61.88
71917;BME280;59793;46.506;6.674;2023-04-27T01:32:31;97181.72;;;12.61;62.54
71917;BME280;59793;46.506;6.674;2023-04-27T01:34:56;97178.34;;;12.22;63.62
71917;BME280;59793;46.506;6.674;2023-04-27T01:37:22;97170.09;;;12.23;63.35
71917;BME280;59793;46.506;6.674;2023-04-27T01:39:47;97196.09;;;12.21;62.85
71917;BME280;59793;46.506;6.674;2023-04-27T01:42:12;97191.88;;;12.01;62.97
71917;BME280;59793;46.506;6.674;2023-04-27T01:44:38;97191.88;;;12.01;62.90
71917;BME280;59793;46.506;6.674;2023-04-27T01:47:03;97189.22;;;11.81;63.68
71917;BME280;59793;46.506;6.674;2023-04-27T01:49:29;97179.94;;;11.71;63.96
71917;BME280;59793;46.506;6.674;2023-04-27T01:51:54;97191.34;;;11.91;64.82
71917;BME280;59793;46.506;6.674;2023-04-27T01:54:19;97191.00;;;11.77;63.33
71917;BME280;59793;46.506;6.674;2023-04-27T01:56:45;97145.09;;;11.31;63.42
71917;BME280;59793;46.506;6.674;2023-04-27T01:59:10;97147.56;;;11.39;63.10
71917;BME280;59793;46.506;6.674;2023-04-27T02:01:35;97177.06;;;11.61;63.43
71917;BME280;59793;46.506;6.674;2023-04-27T02:04:01;97170.44;;;11.67;63.53
71917;BME280;59793;46.506;6.674;2023-04-27T02:06:26;97180.06;;;11.59;62.92
71917;BME280;59793;46.506;6.674;2023-04-27T02:08:51;97162.03;;;11.45;62.52
71917;BME280;59793;46.506;6.674;2023-04-27T02:11:17;97185.06;;;11.64;61.91
71917;BME280;59793;46.506;6.674;2023-04-27T02:13:42;97143.66;;;11.33;62.08
71917;BME280;59793;46.506;6.674;2023-04-27T02:16:08;97179.72;;;11.61;62.10
71917;BME280;59793;46.506;6.674;2023-04-27T02:18:33;97169.44;;;11.40;62.63
71917;BME280;59793;46.506;6.674;2023-04-27T02:21:00;97172.44;;;11.38;63.05
71917;BME280;59793;46.506;6.674;2023-04-27T02:23:25;97142.91;;;11.33;62.49
71917;BME280;59793;46.506;6.674;2023-04-27T02:25:51;97178.19;;;11.60;62.02
71917;BME280;59793;46.506;6.674;2023-04-27T02:28:16;97166.00;;;11.55;62.42
71917;BME280;59793;46.506;6.674;2023-04-27T02:30:42;97172.91;;;11.60;62.71
71917;BME280;59793;46.506;6.674;2023-04-27T02:33:07;97132.19;;;11.41;62.66
71917;BME280;59793;46.506;6.674;2023-04-27T02:35:32;97113.81;;;11.29;62.91
71917;BME280;59793;46.506;6.674;2023-04-27T02:37:58;97179.94;;;11.71;62.59
71917;BME280;59793;46.506;6.674;2023-04-27T02:40:24;97183.16;;;11.45;63.18
71917;BME280;59793;46.506;6.674;2023-04-27T02:42:49;97138.94;;;11.07;63.88
71917;BME280;59793;46.506;6.674;2023-04-27T02:45:15;97172.94;;;11.28;63.98
71917;BME280;59793;46.506;6.674;2023-04-27T02:47:40;97165.72;;;11.25;64.17
71917;BME280;59793;46.506;6.674;2023-04-27T02:50:06;97164.19;;;11.24;64.13
71917;BME280;59793;46.506;6.674;2023-04-27T02:52:32;97183.50;;;11.28;64.65
71917;BME280;59793;46.506;6.674;2023-04-27T02:54:57;97185.38;;;11.28;64.65
71917;BME280;59793;46.506;6.674;2023-04-27T02:57:23;97174.91;;;11.31;64.40
71917;BME280;59793;46.506;6.674;2023-04-27T02:59:48;97173.13;;;11.04;64.74
71917;BME280;59793;46.506;6.674;2023-04-27T03:02:13;97177.53;;;10.99;64.92
71917;BME280;59793;46.506;6.674;2023-04-27T03:04:39;97124.88;;;10.56;64.78
71917;BME280;59793;46.506;6.674;2023-04-27T03:07:04;97176.13;;;10.74;64.64
71917;BME280;59793;46.506;6.674;2023-04-27T03:09:30;97173.22;;;10.63;64.94
71917;BME280;59793;46.506;6.674;2023-04-27T03:11:55;97160.97;;;10.39;64.77
71917;BME280;59793;46.506;6.674;2023-04-27T03:14:21;97192.28;;;10.57;64.93
71917;BME280;59793;46.506;6.674;2023-04-27T03:16:47;97191.28;;;10.49;65.27
71917;BME280;59793;46.506;6.674;2023-04-27T03:19:12;97177.91;;;10.14;66.11
71917;BME280;59793;46.506;6.674;2023-04-27T03:21:38;97186.88;;;10.25;66.29
71917;BME280;59793;46.506;6.674;2023-04-27T03:24:03;97181.84;;;10.32;66.25
71917;BME280;59793;46.506;6.674;2023-04-27T03:26:29;97167.16;;;10.19;66.64
71917;BME280;59793;46.506;6.674;2023-04-27T03:28:54;97169.53;;;10.24;66.11
71917;BME280;59793;46.506;6.674;2023-04-27T03:31:20;97169.44;;;10.20;65.42
71917;BME280;59793;46.506;6.674;2023-04-27T03:33:45;97207.00;;;10.45;65.22
71917;BME280;59793;46.506;6.674;2023-04-27T03:36:11;97191.47;;;10.40;64.75
71917;BME280;59793;46.506;6.674;2023-04-27T03:38:36;97195.91;;;10.52;64.58
71917;BME280;59793;46.506;6.674;2023-04-27T03:41:02;97193.41;;;10.43;64.36
71917;BME280;59793;46.506;6.674;2023-04-27T03:43:27;97206.53;;;10.56;65.03
71917;BME280;59793;46.506;6.674;2023-04-27T03:45:53;97201.59;;;10.54;65.71
71917;BME280;59793;46.506;6.674;2023-04-27T03:48:19;97185.22;;;10.61;65.40
71917;BME280;59793;46.506;6.674;2023-04-27T03:50:44;97204.13;;;10.79;65.24
71917;BME280;59793;46.506;6.674;2023-04-27T03:53:10;97185.44;;;10.84;64.81
71917;BME280;59793;46.506;6.674;2023-04-27T03:55:40;97200.91;;;11.01;64.71
71917;BME280;59793;46.506;6.674;2023-04-27T03:58:06;97207.03;;;10.89;64.78
71917;BME280;59793;46.506;6.674;2023-04-27T04:00:33;97205.47;;;10.72;64.86
71917;BME280;59793;46.506;6.674;2023-04-27T04:02:58;97184.47;;;10.60;64.61
71917;BME280;59793;46.506;6.674;2023-04-27T04:05:24;97206.41;;;10.80;63.74
71917;BME280;59793;46.506;6.674;2023-04-27T04:07:49;97204.63;;;10.68;64.42
71917;BME280;59793;46.506;6.674;2023-04-27T04:10:15;97184.50;;;10.48;64.88
71917;BME280;59793;46.506;6.674;2023-04-27T04:12:40;97185.34;;;10.36;65.33
71917;BME280;59793;46.506;6.674;2023-04-27T04:15:06;97212.84;;;10.67;64.72
71917;BME280;59793;46.506;6.674;2023-04-27T04:17:32;97186.13;;;10.52;64.88
71917;BME280;59793;46.506;6.674;2023-04-27T04:19:58;97214.59;;;10.75;64.76
71917;BME280;59793;46.506;6.674;2023-04-27T04:22:24;97209.91;;;10.84;64.40
71917;BME280;59793;46.506;6.674;2023-04-27T04:24:49;97203.38;;;10.78;64.19
71917;BME280;59793;46.506;6.674;2023-04-27T04:27:15;97219.59;;;10.80;64.63
71917;BME280;59793;46.506;6.674;2023-04-27T04:29:41;97216.88;;;10.76;64.65
71917;BME280;59793;46.506;6.674;2023-04-27T04:32:06;97208.56;;;10.74;64.47
71917;BME280;59793;46.506;6.674;2023-04-27T04:34:33;97176.47;;;10.57;64.41
71917;BME280;59793;46.506;6.674;2023-04-27T04:36:59;97213.22;;;10.81;64.56
71917;BME280;59793;46.506;6.674;2023-04-27T04:39:24;97206.41;;;10.80;65.04
71917;BME280;59793;46.506;6.674;2023-04-27T04:41:51;97207.44;;;10.91;64.70
71917;BME280;59793;46.506;6.674;2023-04-27T04:44:17;97211.88;;;10.87;65.11
71917;BME280;59793;46.506;6.674;2023-04-27T04:46:43;97205.25;;;10.93;65.12
71917;BME280;59793;46.506;6.674;2023-04-27T04:49:08;97178.28;;;10.84;65.27
71917;BME280;59793;46.506;6.674;2023-04-27T04:51:34;97206.78;;;10.94;65.09
71917;BME280;59793;46.506;6.674;2023-04-27T04:54:00;97199.72;;;10.83;64.77
71917;BME280;59793;46.506;6.674;2023-04-27T04:56:25;97194.25;;;10.75;64.81
71917;BME280;59793;46.506;6.674;2023-04-27T04:58:50;97175.88;;;10.63;65.45
71917;BME280;59793;46.506;6.674;2023-04-27T05:01:16;97191.28;;;10.77;65.47
71917;BME280;59793;46.506;6.674;2023-04-27T05:03:42;97178.44;;;10.75;65.78
71917;BME280;59793;46.506;6.674;2023-04-27T05:06:07;97196.81;;;10.88;66.49
71917;BME280;59793;46.506;6.674;2023-04-27T05:08:33;97184.34;;;11.00;66.58
71917;BME280;59793;46.506;6.674;2023-04-27T05:10:58;97189.44;;;11.09;66.91
71917;BME280;59793;46.506;6.674;2023-04-27T05:13:24;97206.63;;;11.19;66.66
71917;BME280;59793;46.506;6.674;2023-04-27T05:15:50;97221.09;;;11.25;66.17
71917;BME280;59793;46.506;6.674;2023-04-27T05:18:16;97180.59;;;11.01;65.20
71917;BME280;59793;46.506;6.674;2023-04-27T05:20:41;97209.84;;;11.12;64.62
71917;BME280;59793;46.506;6.674;2023-04-27T05:23:07;97194.88;;;11.00;63.94
71917;BME280;59793;46.506;6.674;2023-04-27T05:25:33;97226.19;;;11.18;63.59
71917;BME280;59793;46.506;6.674;2023-04-27T05:27:58;97228.22;;;11.09;63.95
71917;BME280;59793;46.506;6.674;2023-04-27T05:30:24;97185.69;;;10.94;63.80
71917;BME280;59793;46.506;6.674;2023-04-27T05:32:49;97221.50;;;11.27;63.60
71917;BME280;59793;46.506;6.674;2023-04-27T05:35:15;97222.97;;;11.40;63.13
71917;BME280;59793;46.506;6.674;2023-04-27T05:37:40;97234.97;;;11.54;63.35
71917;BME280;59793;46.506;6.674;2023-04-27T05:40:07;97233.16;;;11.58;63.79
71917;BME280;59793;46.506;6.674;2023-04-27T05:42:34;97233.31;;;11.65;64.23
71917;BME280;59793;46.506;6.674;2023-04-27T05:45:00;97228.72;;;11.62;64.91
71917;BME280;59793;46.506;6.674;2023-04-27T05:47:25;97209.56;;;11.65;65.88
71917;BME280;59793;46.506;6.674;2023-04-27T05:49:51;97227.28;;;11.80;66.34
71917;BME280;59793;46.506;6.674;2023-04-27T05:52:20;97239.13;;;11.86;66.36
71917;BME280;59793;46.506;6.674;2023-04-27T05:54:49;97244.69;;;12.01;66.00
71917;BME280;59793;46.506;6.674;2023-04-27T05:57:15;97248.69;;;12.10;65.15
71917;BME280;59793;46.506;6.674;2023-04-27T05:59:41;97225.88;;;12.02;65.21
71917;BME280;59793;46.506;6.674;2023-04-27T06:02:07;97252.00;;;12.23;65.18
71917;BME280;59793;46.506;6.674;2023-04-27T06:04:32;97246.13;;;12.14;65.02
71917;BME280;59793;46.506;6.674;2023-04-27T06:06:58;97224.41;;;12.05;64.53
71917;BME280;59793;46.506;6.674;2023-04-27T06:09:24;97232.78;;;12.07;64.03
71917;BME280;59793;46.506;6.674;2023-04-27T06:11:50;97256.59;;;12.26;64.00
71917;BME280;59793;46.506;6.674;2023-04-27T06:14:15;97243.09;;;12.31;64.22
71917;BME280;59793;46.506;6.674;2023-04-27T06:16:41;97220.28;;;12.42;63.83
71917;BME280;59793;46.506;6.674;2023-04-27T06:19:07;97261.41;;;13.02;63.32
71917;BME280;59793;46.506;6.674;2023-04-27T06:21:33;97229.03;;;12.66;61.44
71917;BME280;59793;46.506;6.674;2023-04-27T06:24:00;97268.94;;;13.00;61.99
71917;BME280;59793;46.506;6.674;2023-04-27T06:26:26;97251.22;;;12.81;61.10
71917;BME280;59793;46.506;6.674;2023-04-27T06:28:51;97254.44;;;13.13;60.75
71917;BME280;59793;46.506;6.674;2023-04-27T06:31:16;97267.16;;;13.50;60.72
71917;BME280;59793;46.506;6.674;2023-04-27T06:33:42;97256.56;;;13.50;60.49
71917;BME280;59793;46.506;6.674;2023-04-27T06:36:07;97266.22;;;13.61;60.38
71917;BME280;59793;46.506;6.674;2023-04-27T06:38:33;97272.28;;;13.88;61.57
71917;BME280;59793;46.506;6.674;2023-04-27T06:40:58;97267.88;;;13.96;62.04
71917;BME280;59793;46.506;6.674;2023-04-27T06:43:24;97253.31;;;13.83;61.66
71917;BME280;59793;46.506;6.674;2023-04-27T06:45:50;97225.88;;;13.68;61.03
71917;BME280;59793;46.506;6.674;2023-04-27T06:48:15;97268.13;;;13.87;61.09
71917;BME280;59793;46.506;6.674;2023-04-27T06:50:41;97259.25;;;13.76;62.36
71917;BME280;59793;46.506;6.674;2023-04-27T06:53:07;97262.25;;;13.25;66.55
71917;BME280;59793;46.506;6.674;2023-04-27T06:55:33;97255.81;;;13.07;67.64
71917;BME280;59793;46.506;6.674;2023-04-27T06:57:58;97249.19;;;13.16;67.52
71917;BME280;59793;46.506;6.674;2023-04-27T07:00:23;97263.00;;;13.26;67.10
71917;BME280;59793;46.506;6.674;2023-04-27T07:02:49;97253.16;;;13.49;65.67
71917;BME280;59793;46.506;6.674;2023-04-27T07:05:15;97239.69;;;13.58;63.91
71917;BME280;59793;46.506;6.674;2023-04-27T07:07:40;97241.09;;;13.75;65.65
71917;BME280;59793;46.506;6.674;2023-04-27T07:10:07;97247.25;;;13.82;65.29
71917;BME280;59793;46.506;6.674;2023-04-27T07:12:33;97270.22;;;14.28;64.22
71917;BME280;59793;46.506;6.674;2023-04-27T07:14:58;97249.75;;;14.28;62.79
71917;BME280;59793;46.506;6.674;2023-04-27T07:17:24;97270.97;;;14.58;62.91
71917;BME280;59793;46.506;6.674;2023-04-27T07:19:49;97280.09;;;14.61;60.67
71917;BME280;59793;46.506;6.674;2023-04-27T07:22:15;97261.25;;;14.40;60.75
71917;BME280;59793;46.506;6.674;2023-04-27T07:24:40;97263.50;;;14.38;61.95
71917;BME280;59793;46.506;6.674;2023-04-27T07:27:06;97271.91;;;14.43;62.38
71917;BME280;59793;46.506;6.674;2023-04-27T07:29:31;97270.00;;;14.44;61.79
71917;BME280;59793;46.506;6.674;2023-04-27T07:31:56;97261.41;;;14.50;60.61
71917;BME280;59793;46.506;6.674;2023-04-27T07:34:22;97248.03;;;14.43;60.33
71917;BME280;59793;46.506;6.674;2023-04-27T07:36:48;97232.75;;;14.60;58.56
71917;BME280;59793;46.506;6.674;2023-04-27T07:39:13;97234.25;;;14.61;57.87
71917;BME280;59793;46.506;6.674;2023-04-27T07:41:38;97245.63;;;14.61;57.08
71917;BME280;59793;46.506;6.674;2023-04-27T07:44:04;97225.72;;;14.44;57.23
71917;BME280;59793;46.506;6.674;2023-04-27T07:46:29;97246.88;;;14.41;58.44
71917;BME280;59793;46.506;6.674;2023-04-27T07:48:56;97245.56;;;14.54;56.93
71917;BME280;59793;46.506;6.674;2023-04-27T07:51:23;97233.00;;;14.51;56.78
71917;BME280;59793;46.506;6.674;2023-04-27T07:53:49;97240.91;;;14.17;57.84
71917;BME280;59793;46.506;6.674;2023-04-27T07:56:15;97241.63;;;14.14;57.72
71917;BME280;59793;46.506;6.674;2023-04-27T07:58:41;97237.56;;;14.50;56.72
71917;BME280;59793;46.506;6.674;2023-04-27T08:01:07;97236.63;;;14.69;57.23
71917;BME280;59793;46.506;6.674;2023-04-27T08:03:32;97215.63;;;14.53;57.99
71917;BME280;59793;46.506;6.674;2023-04-27T08:05:58;97253.03;;;14.78;54.97
71917;BME280;59793;46.506;6.674;2023-04-27T08:08:23;97228.69;;;14.73;57.23
71917;BME280;59793;46.506;6.674;2023-04-27T08:10:48;97247.56;;;14.64;58.72
71917;BME280;59793;46.506;6.674;2023-04-27T08:13:14;97243.19;;;14.19;61.64
71917;BME280;59793;46.506;6.674;2023-04-27T08:15:39;97224.38;;;13.71;62.79
71917;BME280;59793;46.506;6.674;2023-04-27T08:18:05;97249.06;;;14.05;61.69
71917;BME280;59793;46.506;6.674;2023-04-27T08:20:30;97229.13;;;14.45;59.82
71917;BME280;59793;46.506;6.674;2023-04-27T08:22:56;97222.72;;;14.79;56.39
71917;BME280;59793;46.506;6.674;2023-04-27T08:25:21;97224.16;;;15.55;53.65
71917;BME280;59793;46.506;6.674;2023-04-27T08:27:46;97242.75;;;16.17;53.48
71917;BME280;59793;46.506;6.674;2023-04-27T08:30:12;97235.16;;;16.12;54.28
71917;BME280;59793;46.506;6.674;2023-04-27T08:32:37;97199.44;;;16.06;54.09
71917;BME280;59793;46.506;6.674;2023-04-27T08:35:03;97216.97;;;16.25;54.53
71917;BME280;59793;46.506;6.674;2023-04-27T08:37:28;97230.28;;;16.32;52.86
71917;BME280;59793;46.506;6.674;2023-04-27T08:39:54;97227.25;;;16.27;53.48
71917;BME280;59793;46.506;6.674;2023-04-27T08:42:19;97211.91;;;15.95;53.78
71917;BME280;59793;46.506;6.674;2023-04-27T08:44:45;97229.81;;;16.05;53.65
71917;BME280;59793;46.506;6.674;2023-04-27T08:47:11;97229.84;;;16.12;52.61
71917;BME280;59793;46.506;6.674;2023-04-27T08:49:36;97225.28;;;16.13;53.67
71917;BME280;59793;46.506;6.674;2023-04-27T08:52:12;97237.88;;;16.27;52.20
71917;BME280;59793;46.506;6.674;2023-04-27T08:54:38;97231.41;;;16.28;51.50
71917;BME280;59793;46.506;6.674;2023-04-27T08:57:11;97233.72;;;16.25;52.61
71917;BME280;59793;46.506;6.674;2023-04-27T08:59:36;97229.16;;;16.26;52.27
71917;BME280;59793;46.506;6.674;2023-04-27T09:02:02;97207.41;;;16.06;52.72
71917;BME280;59793;46.506;6.674;2023-04-27T09:04:38;97235.28;;;16.41;50.76
71917;BME280;59793;46.506;6.674;2023-04-27T09:07:11;97224.28;;;16.53;50.13
71917;BME280;59793;46.506;6.674;2023-04-27T09:09:36;97226.97;;;16.57;49.49
71917;BME280;59793;46.506;6.674;2023-04-27T09:12:12;97230.00;;;16.48;49.60
71917;BME280;59793;46.506;6.674;2023-04-27T09:14:38;97205.25;;;16.37;49.67
71917;BME280;59793;46.506;6.674;2023-04-27T09:17:03;97226.94;;;16.46;47.78
71917;BME280;59793;46.506;6.674;2023-04-27T09:19:29;97216.16;;;16.14;48.30
71917;BME280;59793;46.506;6.674;2023-04-27T09:22:04;97236.06;;;16.48;47.63
71917;BME280;59793;46.506;6.674;2023-04-27T09:24:30;97224.50;;;16.05;47.38
71917;BME280;59793;46.506;6.674;2023-04-27T09:26:55;97233.38;;;16.38;48.31
71917;BME280;59793;46.506;6.674;2023-04-27T09:29:37;97232.38;;;16.82;46.57
71917;BME280;59793;46.506;6.674;2023-04-27T09:32:18;97179.97;;;17.07;44.50
71917;BME280;59793;46.506;6.674;2023-04-27T09:34:45;97219.50;;;17.02;44.51
71917;BME280;59793;46.506;6.674;2023-04-27T09:37:11;97191.38;;;17.15;45.65
71917;BME280;59793;46.506;6.674;2023-04-27T09:39:37;97214.94;;;17.13;44.38
71917;BME280;59793;46.506;6.674;2023-04-27T09:42:03;97208.88;;;17.34;45.77
71917;BME280;59793;46.506;6.674;2023-04-27T09:44:29;97184.53;;;17.07;46.90
71917;BME280;59793;46.506;6.674;2023-04-27T09:46:57;97220.28;;;17.49;44.93
71917;BME280;59793;46.506;6.674;2023-04-27T09:49:23;97202.78;;;17.33;46.01
71917;BME280;59793;46.506;6.674;2023-04-27T09:51:49;97221.03;;;17.13;45.55
71917;BME280;59793;46.506;6.674;2023-04-27T09:54:15;97229.00;;;16.95;46.92
71917;BME280;59793;46.506;6.674;2023-04-27T09:57:02;97208.50;;;17.17;43.49
71917;BME280;59793;46.506;6.674;2023-04-27T10:02:13;97195.91;;;17.86;44.80
71917;BME280;59793;46.506;6.674;2023-04-27T10:07:14;97193.22;;;18.00;42.34
71917;BME280;59793;46.506;6.674;2023-04-27T10:09:44;97192.47;;;17.75;42.15
71917;BME280;59793;46.506;6.674;2023-04-27T10:14:50;97183.72;;;17.85;45.35
71917;BME280;59793;46.506;6.674;2023-04-27T10:17:15;97179.50;;;17.91;44.52
71917;BME280;59793;46.506;6.674;2023-04-27T10:19:52;97164.19;;;18.24;44.18
71917;BME280;59793;46.506;6.674;2023-04-27T10:22:19;97182.75;;;18.45;42.38
71917;BME280;59793;46.506;6.674;2023-04-27T10:24:50;97165.06;;;17.92;42.02
71917;BME280;59793;46.506;6.674;2023-04-27T10:27:17;97178.41;;;17.74;41.09
71917;BME280;59793;46.506;6.674;2023-04-27T10:29:45;97178.34;;;18.06;42.39
71917;BME280;59793;46.506;6.674;2023-04-27T10:32:24;97186.75;;;17.87;44.71
71917;BME280;59793;46.506;6.674;2023-04-27T10:34:51;97176.13;;;17.65;46.32
71917;BME280;59793;46.506;6.674;2023-04-27T10:37:37;97187.50;;;17.91;46.52
71917;BME280;59793;46.506;6.674;2023-04-27T10:40:07;97182.13;;;18.02;45.17
71917;BME280;59793;46.506;6.674;2023-04-27T10:42:34;97185.00;;;18.47;42.93
71917;BME280;59793;46.506;6.674;2023-04-27T10:45:00;97185.09;;;18.32;45.43
71917;BME280;59793;46.506;6.674;2023-04-27T10:47:39;97182.16;;;18.86;40.85
71917;BME280;59793;46.506;6.674;2023-04-27T10:50:08;97191.13;;;19.14;45.57
71917;BME280;59793;46.506;6.674;2023-04-27T10:52:42;97152.50;;;19.22;43.25
71917;BME280;59793;46.506;6.674;2023-04-27T10:55:16;97159.94;;;19.00;44.62
71917;BME280;59793;46.506;6.674;2023-04-27T10:57:48;97172.13;;;19.01;43.55
71917;BME280;59793;46.506;6.674;2023-04-27T11:00:24;97174.09;;;19.42;45.71
71917;BME280;59793;46.506;6.674;2023-04-27T11:02:52;97167.41;;;19.61;42.57
71917;BME280;59793;46.506;6.674;2023-04-27T11:05:23;97163.22;;;19.59;42.19
71917;BME280;59793;46.506;6.674;2023-04-27T11:07:50;97156.88;;;19.46;44.53
71917;BME280;59793;46.506;6.674;2023-04-27T11:10:17;97151.19;;;19.82;40.36
71917;BME280;59793;46.506;6.674;2023-04-27T11:12:43;97161.72;;;19.96;39.45
71917;BME280;59793;46.506;6.674;2023-04-27T11:15:09;97137.31;;;19.94;39.25
71917;BME280;59793;46.506;6.674;2023-04-27T11:17:35;97167.03;;;20.00;40.17
71917;BME280;59793;46.506;6.674;2023-04-27T11:20:00;97153.69;;;19.96;39.14
71917;BME280;59793;46.506;6.674;2023-04-27T11:22:25;97144.16;;;19.61;37.74
71917;BME280;59793;46.506;6.674;2023-04-27T11:24:52;97146.00;;;19.68;37.70
71917;BME280;59793;46.506;6.674;2023-04-27T11:27:18;97137.81;;;19.82;38.19
71917;BME280;59793;46.506;6.674;2023-04-27T11:29:46;97146.63;;;19.83;39.72
71917;BME280;59793;46.506;6.674;2023-04-27T11:32:18;97151.78;;;19.63;40.75
71917;BME280;59793;46.506;6.674;2023-04-27T11:34:48;97151.41;;;19.57;39.77
71917;BME280;59793;46.506;6.674;2023-04-27T11:37:20;97147.84;;;20.09;40.20
71917;BME280;59793;46.506;6.674;2023-04-27T11:39:47;97146.25;;;20.15;39.36
71917;BME280;59793;46.506;6.674;2023-04-27T11:44:39;97150.34;;;20.53;37.66
71917;BME280;59793;46.506;6.674;2023-04-27T11:47:05;97125.69;;;20.66;36.73
71917;BME280;59793;46.506;6.674;2023-04-27T11:49:31;97108.00;;;20.72;36.78
71917;BME280;59793;46.506;6.674;2023-04-27T11:51:56;97140.38;;;20.81;36.82
71917;BME280;59793;46.506;6.674;2023-04-27T11:54:27;97138.22;;;20.72;34.89
71917;BME280;59793;46.506;6.674;2023-04-27T11:57:03;97095.03;;;20.13;36.48
71917;BME280;59793;46.506;6.674;2023-04-27T11:59:28;97149.78;;;20.35;36.77
71917;BME280;59793;46.506;6.674;2023-04-27T12:01:54;97114.94;;;20.39;35.01
71917;BME280;59793;46.506;6.674;2023-04-27T12:04:19;97122.56;;;20.71;33.34
71917;BME280;59793;46.506;6.674;2023-04-27T12:06:45;97131.84;;;20.90;35.66
71917;BME280;59793;46.506;6.674;2023-04-27T12:09:10;97133.88;;;21.29;35.03
71917;BME280;59793;46.506;6.674;2023-04-27T12:11:35;97130.03;;;20.83;33.34
71917;BME280;59793;46.506;6.674;2023-04-27T12:14:01;97134.94;;;20.61;34.79
71917;BME280;59793;46.506;6.674;2023-04-27T12:16:26;97133.38;;;20.64;34.59
71917;BME280;59793;46.506;6.674;2023-04-27T12:18:52;97127.81;;;20.51;35.26
71917;BME280;59793;46.506;6.674;2023-04-27T12:21:17;97136.19;;;20.80;35.24
71917;BME280;59793;46.506;6.674;2023-04-27T12:23:43;97107.69;;;20.66;34.32
71917;BME280;59793;46.506;6.674;2023-04-27T12:26:09;97114.66;;;20.87;34.40
71917;BME280;59793;46.506;6.674;2023-04-27T12:28:34;97128.56;;;21.02;33.53
71917;BME280;59793;46.506;6.674;2023-04-27T12:31:04;97136.31;;;21.20;34.45
71917;BME280;59793;46.506;6.674;2023-04-27T12:33:29;97102.50;;;21.06;33.86
71917;BME280;59793;46.506;6.674;2023-04-27T12:35:55;97128.28;;;21.43;32.09
71917;BME280;59793;46.506;6.674;2023-04-27T12:38:20;97114.22;;;21.59;34.75
71917;BME280;59793;46.506;6.674;2023-04-27T12:40:47;97107.28;;;21.82;33.39
71917;BME280;59793;46.506;6.674;2023-04-27T12:43:12;97112.56;;;22.05;33.92
71917;BME280;59793;46.506;6.674;2023-04-27T12:45:37;97125.09;;;21.52;35.16
71917;BME280;59793;46.506;6.674;2023-04-27T12:48:03;97123.72;;;21.64;34.75
71917;BME280;59793;46.506;6.674;2023-04-27T12:50:30;97111.47;;;21.63;34.67
71917;BME280;59793;46.506;6.674;2023-04-27T12:52:56;97124.19;;;21.59;35.70
71917;BME280;59793;46.506;6.674;2023-04-27T12:55:21;97099.78;;;21.93;35.19
71917;BME280;59793;46.506;6.674;2023-04-27T12:57:46;97115.31;;;22.22;35.70
71917;BME280;59793;46.506;6.674;2023-04-27T13:00:12;97114.94;;;22.39;35.03
71917;BME280;59793;46.506;6.674;2023-04-27T13:02:38;97120.59;;;22.25;34.17
71917;BME280;59793;46.506;6.674;2023-04-27T13:05:03;97104.19;;;22.39;33.75